Weather at Zarqa Airport

Public forecast

Using degrees Celsius for public forecast. Weather courtesy of forecast.io.

Closest aviation weather report (METAR) to Zarqa Airport

Closest report is Amman Civil (Marka International) Airport, 8.4 nm (15.6 km) WSW.

2022/11/30 17:00 (retrieved 42 minutes ago)

OJAM 301700Z 21002KT 5000 HZ NSC 14/10 Q1019 NOSIG

Closest aviation forecast (TAF) to Zarqa Airport

Closest forecast is Amman Civil (Marka International) Airport, 8.4 nm (15.6 km) WSW.

2022/11/30 12:15 (retrieved 5 hours ago)

TAF OJAM 300932Z 3012/0118 24008KT 5000 HZ SCT030 PROB30 3012/3016 FEW020TCU PROB30 0100/0106 2000 BR PROB40 TEMPO 0103/0108 15008KT